Main page
METAR-TAF:

METAR-TAF

Airports :

Ürümqi Diwopu International Airport

Ürümqi, China

latitude: 43-54N, longitude: 087-28E, elevation: 654 m

Current weather observation

The report was made 37 minutes ago, at 18:00 UTC
Wind 2 kt from the East/Southeast
Temperature 2°C
Humidity 80%
Pressure 1030 hPa
Visibility 10 km or more
no clouds below 1500 m and no cumulonimbus

METAR: ZWWW 241800Z 11001MPS CAVOK 02/M01 Q1030 NOSIG

Time: 00:37 (18:37 UTC)

Forecast

The report was made 3 hours and 35 minutes ago, at 15:02 UTC
Forecast valid from 24 at 18 UTC to 25 at 18 UTC
Wind 8 kt from the South
Visibility 10 km or more
no clouds below 1500 m and no cumulonimbus
Becoming
from 25 at 03 UTC to 25 at 04 UTC
Wind 8 kt from the North
Becoming
from 25 at 13 UTC to 25 at 14 UTC
Wind 8 kt from the South

TAF: ZWWW 241502Z 2418/2518 18004MPS CAVOK TX12/2509Z TN01/2423Z BECMG 2503/2504 36004MPS BECMG 2513/2514 18004MPS

Weather observations and forecasts of more than 4000 airports (METAR and TAF reports).

The available stations are represented by yellow and red dots on the map.

Hover mouse over dot to see the name of the station.

Then click to see weather observations and forecasts.

To change the map : click on the green buttons with a black cross to zoom in, on the green button with a dash to zoom out, or on the green arrows for adjacent maps.


METAR-TAF: